»·PEaware :: N7274H KSBA-KLAS

N7274H :: KSBA-KLAS

FLIGHT INFORMATION

Flight Status: Arrived
Operator: Privately registered:
United States
More flights under this callsign
Pilot: Diego A. (26407)
Aircraft: BEECH AIRCRAFT A90-E90 KING AIR
(BE9L)
More flights by this aircraft type
Origin: KSBA Santa Barbara Mun
United States
Destination: KLAS McCarran Intl
United States
More flights between these airports :: More routes between these airports
Route: +KWANG5 HENER V186 FIM V386 PMD V12 HEC CRESO4
File this flight plan on PilotEdge
Remarks:
Altitude:
(Current/Filed)
13,000ft
Speed:
(Current/Filed)
220kts
Departed: 18-May-20 11:24 AM
Arrived: 18-May-20 12:47 PM
Distance/Time
Traveled:
250nm/1:23
Distance/Time
To Go:
Arrived

Flight Plot

Page will automatically refresh every two minutes.


Map Options




Map Legend


Flown Route
Filed Route
Departure Airport
Arrival Airport
Navaid (VOR, NDB)
Fix

Horizontal Profiles

Position Reports

Time Latitude Longitude Heading Altitude Ground
Speed
18-May-20 10:42 34.432795 -119.836326 72 15ft 0kts
18-May-20 10:43 34.432795 -119.836326 72 15ft 0kts
18-May-20 10:44 34.432795 -119.836326 72 15ft 0kts
18-May-20 10:45 34.432795 -119.836326 72 15ft 0kts
18-May-20 10:46 34.432795 -119.836326 72 15ft 0kts
18-May-20 10:47 34.432795 -119.836326 72 15ft 0kts
18-May-20 10:48 34.432795 -119.836326 72 15ft 0kts
18-May-20 10:49 34.432795 -119.836326 72 15ft 0kts
18-May-20 10:50 34.432795 -119.836326 72 15ft 0kts
18-May-20 10:51 34.432795 -119.836326 72 15ft 0kts
18-May-20 10:52 34.432795 -119.836326 72 15ft 0kts
18-May-20 10:53 34.432795 -119.836326 72 15ft 0kts
18-May-20 10:54 34.432795 -119.836326 72 15ft 0kts
18-May-20 10:55 34.432795 -119.836326 72 15ft 0kts
18-May-20 10:56 34.432795 -119.836326 72 15ft 0kts
18-May-20 10:57 34.432795 -119.836326 72 15ft 0kts
18-May-20 10:58 34.432795 -119.836326 72 15ft 0kts
18-May-20 10:59 34.432795 -119.836326 72 15ft 0kts
18-May-20 11:00 34.432795 -119.836326 72 15ft 0kts
18-May-20 11:01 34.432795 -119.836326 72 15ft 0kts
18-May-20 11:02 34.432795 -119.836326 72 15ft 0kts
18-May-20 11:03 34.432795 -119.836326 72 15ft 0kts
18-May-20 11:04 34.432795 -119.836326 72 15ft 0kts
18-May-20 11:05 34.432795 -119.836326 72 15ft 0kts
18-May-20 11:06 34.432795 -119.836326 72 15ft 0kts
18-May-20 11:07 34.432795 -119.836326 72 15ft 0kts
18-May-20 11:08 34.432795 -119.836326 72 15ft 0kts
18-May-20 11:09 34.432795 -119.836326 72 15ft 0kts
18-May-20 11:10 34.432795 -119.836326 72 15ft 0kts
18-May-20 11:11 34.432795 -119.836326 72 15ft 0kts
18-May-20 11:12 34.432795 -119.836326 72 15ft 0kts
18-May-20 11:13 34.432795 -119.836326 72 15ft 0kts
18-May-20 11:14 34.432795 -119.836326 72 15ft 0kts
18-May-20 11:15 34.432795 -119.836326 72 15ft 0kts
18-May-20 11:16 34.432795 -119.836326 72 15ft 0kts
18-May-20 11:17 34.432795 -119.836326 72 15ft 0kts
18-May-20 11:18 34.432884 -119.835987 72 15ft 1kts
18-May-20 11:19 34.431374 -119.837487 250 15ft 19kts
18-May-20 11:20 34.430713 -119.839796 248 15ft 0kts
18-May-20 11:21 34.430712 -119.839798 248 15ft 0kts
18-May-20 11:22 34.430710 -119.839803 248 15ft 0kts
18-May-20 11:23 34.429280 -119.839931 169 15ft 47kts
18-May-20 11:24 34.398880 -119.824315 145 752ft 150kts
18-May-20 11:25 34.400763 -119.774247 85 2239ft 157kts
18-May-20 11:26 34.389927 -119.723339 115 3626ft 159kts
18-May-20 11:27 34.370933 -119.674069 117 4959ft 163kts
18-May-20 11:28 34.351609 -119.623981 117 6290ft 164kts
18-May-20 11:29 34.332347 -119.574069 119 7608ft 163kts
18-May-20 11:30 34.313200 -119.524529 120 8889ft 164kts
18-May-20 11:31 34.312674 -119.468539 88 9778ft 183kts
18-May-20 11:32 34.317395 -119.407399 90 10951ft 182kts
18-May-20 11:33 34.322052 -119.346825 92 12118ft 180kts
18-May-20 11:34 34.326463 -119.288433 93 13025ft 192kts
18-May-20 11:35 34.331940 -119.215232 92 13041ft 233kts
18-May-20 11:36 34.337879 -119.136747 92 13036ft 233kts
18-May-20 11:37 34.343685 -119.058835 92 13036ft 232kts
18-May-20 11:38 34.349410 -118.981050 92 13035ft 232kts
18-May-20 11:39 34.355092 -118.903381 92 13035ft 231kts
18-May-20 11:40 34.374855 -118.827680 71 13036ft 238kts
18-May-20 11:41 34.400114 -118.753360 72 13036ft 238kts
18-May-20 11:42 34.425311 -118.678975 72 13031ft 239kts
18-May-20 11:43 34.450567 -118.604253 72 13029ft 239kts
18-May-20 11:44 34.475666 -118.529788 72 13038ft 238kts
18-May-20 11:45 34.500680 -118.455371 72 13033ft 238kts
18-May-20 11:46 34.525687 -118.380831 72 13026ft 239kts
18-May-20 11:47 34.550723 -118.306004 72 13014ft 239kts
18-May-20 11:48 34.575630 -118.231392 72 13005ft 239kts
18-May-20 11:49 34.600820 -118.155755 72 13001ft 243kts
18-May-20 11:50 34.626212 -118.079263 73 13000ft 245kts
18-May-20 11:51 34.638487 -117.999884 89 12993ft 237kts
18-May-20 11:52 34.647077 -117.920758 89 12992ft 238kts
18-May-20 11:53 34.655744 -117.841173 89 12975ft 235kts
18-May-20 11:54 34.664201 -117.762658 89 12976ft 236kts
18-May-20 11:55 34.672700 -117.683519 89 12969ft 233kts
18-May-20 11:56 34.680984 -117.605831 90 12975ft 231kts
18-May-20 11:57 34.689173 -117.528621 90 12983ft 229kts
18-May-20 11:58 34.697324 -117.451096 90 12993ft 234kts
18-May-20 12:00 34.705576 -117.372369 90 12995ft 237kts
18-May-20 12:01 34.713814 -117.293340 90 12986ft 234kts
18-May-20 12:02 34.721894 -117.215151 90 12998ft 236kts
18-May-20 12:03 34.730106 -117.135002 90 12985ft 238kts
18-May-20 12:04 34.738279 -117.055100 90 12974ft 237kts
18-May-20 12:05 34.746345 -116.975251 90 12969ft 242kts
18-May-20 12:06 34.754532 -116.894119 90 12951ft 242kts
18-May-20 12:07 34.762644 -116.813099 90 12934ft 238kts
18-May-20 12:08 34.771124 -116.733478 90 12932ft 236kts
18-May-20 12:09 34.779876 -116.654270 90 12940ft 238kts
18-May-20 12:10 34.788764 -116.574465 90 12948ft 238kts
18-May-20 12:11 34.797867 -116.495039 89 13055ft 237kts
18-May-20 12:12 34.819713 -116.421091 29 13065ft 255kts
18-May-20 12:13 34.871737 -116.374308 73 13058ft 246kts
18-May-20 12:14 34.918786 -116.310248 43 13040ft 258kts
18-May-20 12:15 34.974525 -116.255720 40 13041ft 258kts
18-May-20 12:16 35.027078 -116.197336 48 13036ft 253kts
18-May-20 12:16 35.065892 -116.144301 54 13036ft 252kts
18-May-20 12:17 35.108227 -116.075970 58 13027ft 252kts
18-May-20 12:19 35.156814 -115.994943 57 13009ft 250kts
18-May-20 12:19 35.193979 -115.940614 52 13004ft 249kts
18-May-20 12:20 35.241912 -115.879235 48 13010ft 252kts
18-May-20 12:21 35.292315 -115.819278 48 12997ft 251kts
18-May-20 12:23 35.349296 -115.748537 51 12992ft 248kts
18-May-20 12:23 35.388425 -115.695057 53 12589ft 262kts
18-May-20 12:24 35.434956 -115.627103 54 11602ft 257kts
18-May-20 12:25 35.481252 -115.560465 52 10593ft 253kts
18-May-20 12:26 35.527792 -115.497856 49 9923ft 237kts
18-May-20 12:27 35.573289 -115.439781 49 9908ft 245kts
18-May-20 12:28 35.620575 -115.377361 50 9904ft 248kts
18-May-20 12:29 35.666202 -115.314054 51 9903ft 245kts
18-May-20 12:30 35.711298 -115.251552 51 9910ft 246kts
18-May-20 12:31 35.758701 -115.187255 50 8864ft 257kts
18-May-20 12:32 35.806297 -115.122655 50 7367ft 253kts
18-May-20 12:33 35.850773 -115.062289 50 6903ft 219kts
18-May-20 12:34 35.900065 -115.036578 351 6907ft 202kts
18-May-20 12:35 35.957754 -115.045669 350 6917ft 221kts
18-May-20 12:36 36.021087 -115.056114 349 6909ft 235kts
18-May-20 12:37 36.086848 -115.067150 350 6898ft 239kts
18-May-20 12:38 36.152146 -115.071465 5 6600ft 234kts
18-May-20 12:39 36.209018 -115.061891 350 5842ft 178kts
18-May-20 12:40 36.233910 -115.095842 236 4806ft 133kts
18-May-20 12:41 36.201779 -115.106757 177 3894ft 117kts
18-May-20 12:42 36.171465 -115.115365 198 3327ft 108kts
18-May-20 12:43 36.143267 -115.131338 204 3044ft 112kts
18-May-20 12:44 36.115207 -115.147050 199 2659ft 108kts
18-May-20 12:45 36.089872 -115.161893 208 2120ft 51kts
18-May-20 12:46 36.089315 -115.163267 299 2120ft 10kts
18-May-20 12:47 36.087040 -115.166635 212 2120ft 23kts
18-May-20 12:48 36.086487 -115.168037 20 2120ft 0kts
18-May-20 12:49 36.086501 -115.168016 20 2120ft 0kts
18-May-20 12:50 36.086501 -115.168016 20 2120ft 0kts
18-May-20 12:51 36.086501 -115.168016 20 2120ft 0kts

Navigation Log

Ident Type
Flight plan parsing failed, navigation log unavailable